Time;durP1;ratioP1;P1;durP2;ratioP2;P2;SDS_P1;SDS_P2;PMS_P1;PMS_P2;Temp;Humidity;BMP_temperature;BMP_pressure;BME280_temperature;BME280_humidity;BME280_pressure;Samples;Min_cycle;Max_cycle;Signal;HPM_P1;HPM_P2
2021/10/31 00:02:43;;;;;;;11.98;7.88;;;;;;;11.33;75.77;99540.63;8731958;33;20278;-79
2021/10/31 00:07:46;;;;;;;11.75;6.57;;;;;;;11.38;75.68;99547.25;8674958;33;20192;-78
2021/10/31 00:12:51;;;;;;;13.45;7.28;;;;;;;11.52;75.35;99553.09;8665845;33;22009;-78
2021/10/31 00:17:54;;;;;;;12.57;7.47;;;;;;;11.46;75.49;99562.59;8663040;33;20677;-78
2021/10/31 00:22:57;;;;;;;12.00;7.60;;;;;;;11.56;75.52;99565.25;8659492;33;20192;-77
2021/10/31 00:28:01;;;;;;;9.10;6.38;;;;;;;11.56;75.67;99566.09;8659538;33;20196;-76
2021/10/31 00:33:04;;;;;;;9.38;6.43;;;;;;;11.42;76.24;99566.59;8658360;33;20157;-76
2021/10/31 00:38:08;;;;;;;10.05;6.43;;;;;;;11.39;76.26;99567.75;8659644;33;21551;-76
2021/10/31 00:43:12;;;;;;;10.25;7.43;;;;;;;11.52;76.34;99563.84;8658920;33;20668;-76
2021/10/31 00:48:16;;;;;;;11.23;7.75;;;;;;;11.46;76.71;99562.59;8659837;33;20125;-76
2021/10/31 00:53:20;;;;;;;10.85;6.90;;;;;;;11.45;76.61;99577.06;8657208;33;20238;-76
2021/10/31 00:58:25;;;;;;;11.88;7.63;;;;;;;11.32;77.15;99563.94;8659335;33;20239;-76
2021/10/31 01:03:28;;;;;;;10.73;7.57;;;;;;;11.12;77.69;99570.41;8658707;33;21068;-76
2021/10/31 01:08:45;;;;;;;10.10;7.20;;;;;;;11.01;78.72;99574.09;8661227;33;20156;-77
2021/10/31 01:14:08;;;;;;;10.77;6.97;;;;;;;11.13;78.45;99583.69;8657946;33;20880;-77
2021/10/31 01:19:30;;;;;;;10.80;7.20;;;;;;;11.14;78.48;99588.09;8658135;33;20194;-77
2021/10/31 01:25:25;;;;;;;10.52;7.22;;;;;;;11.14;78.49;99587.25;8661255;33;20566;-77
2021/10/31 01:30:38;;;;;;;11.38;7.45;;;;;;;11.16;78.42;99588.81;8690025;33;20144;-77
2021/10/31 01:35:58;;;;;;;11.13;7.35;;;;;;;11.16;78.84;99594.19;8715621;33;20239;-77
2021/10/31 01:41:08;;;;;;;10.23;7.05;;;;;;;11.14;78.85;99589.94;8715205;33;20187;-77
2021/10/31 01:46:18;;;;;;;9.60;6.43;;;;;;;11.22;78.63;99593.59;8690864;33;20241;-77
2021/10/31 01:51:27;;;;;;;9.80;6.47;;;;;;;11.20;78.72;99600.09;8715257;33;21600;-76
2021/10/31 01:56:32;;;;;;;10.02;6.20;;;;;;;11.21;78.64;99607.16;8715086;33;20472;-76
2021/10/31 02:01:39;;;;;;;9.43;7.22;;;;;;;11.26;78.50;99611.09;8715362;33;20435;-76
2021/10/31 02:06:47;;;;;;;9.68;6.72;;;;;;;11.30;78.09;99611.66;8715268;33;20223;-77
2021/10/31 02:11:52;;;;;;;12.20;7.30;;;;;;;11.26;78.31;99618.31;8693490;33;20500;-77
2021/10/31 02:16:57;;;;;;;9.88;6.75;;;;;;;11.18;78.85;99615.53;8718490;33;20195;-77
2021/10/31 02:22:03;;;;;;;10.15;6.95;;;;;;;11.25;78.15;99616.63;8719283;33;20308;-77
2021/10/31 02:27:15;;;;;;;11.38;7.13;;;;;;;11.18;78.41;99604.78;8719343;33;20251;-77
2021/10/31 02:32:21;;;;;;;10.63;6.80;;;;;;;11.15;78.48;99605.91;8659022;33;20153;-77
2021/10/31 02:37:25;;;;;;;9.85;6.93;;;;;;;11.11;78.60;99619.75;8720104;33;20187;-77
2021/10/31 02:42:29;;;;;;;11.77;7.28;;;;;;;11.02;79.05;99622.31;8723583;33;20211;-77
2021/10/31 02:47:37;;;;;;;15.88;7.72;;;;;;;10.90;79.01;99628.03;8723754;33;20904;-77
2021/10/31 02:52:59;;;;;;;12.45;8.18;;;;;;;10.82;79.46;99626.91;8722814;33;20449;-77
2021/10/31 02:58:08;;;;;;;14.32;7.97;;;;;;;10.56;80.69;99650.00;8723303;33;20169;-77
2021/10/31 03:03:12;;;;;;;16.33;9.52;;;;;;;10.60;80.57;99652.22;8734148;33;20450;-77
2021/10/31 03:08:16;;;;;;;15.43;9.10;;;;;;;10.41;81.09;99646.88;8723518;33;20187;-77
2021/10/31 03:13:20;;;;;;;13.57;8.30;;;;;;;10.47;80.70;99640.09;8722030;33;20435;-77
2021/10/31 03:18:23;;;;;;;12.43;8.38;;;;;;;10.35;81.38;99642.06;8723138;33;20515;-77
2021/10/31 03:23:27;;;;;;;13.85;9.18;;;;;;;10.32;81.40;99648.56;8744247;33;20259;-78
2021/10/31 03:28:32;;;;;;;14.07;7.80;;;;;;;10.23;81.89;99654.78;8724072;33;20462;-77
2021/10/31 03:33:35;;;;;;;13.20;8.32;;;;;;;10.20;82.07;99663.09;8722641;33;20183;-77
2021/10/31 03:38:38;;;;;;;16.42;9.63;;;;;;;10.03;82.73;99663.78;8664482;33;20245;-77
2021/10/31 03:43:42;;;;;;;13.95;8.85;;;;;;;10.26;81.60;99664.41;8662841;33;20532;-77
2021/10/31 03:48:45;;;;;;;15.48;9.48;;;;;;;10.20;81.92;99670.31;8663162;33;20191;-77
2021/10/31 03:53:48;;;;;;;15.45;9.15;;;;;;;10.12;82.13;99660.25;8662467;33;20129;-77
2021/10/31 03:58:53;;;;;;;13.88;9.05;;;;;;;10.12;81.83;99657.56;8663170;33;20223;-77
2021/10/31 04:03:56;;;;;;;16.40;8.57;;;;;;;10.02;82.24;99656.72;8659741;33;20187;-77
2021/10/31 04:08:59;;;;;;;13.57;8.82;;;;;;;10.00;82.19;99658.69;8669489;33;20261;-77
2021/10/31 04:14:04;;;;;;;14.90;8.27;;;;;;;9.98;82.09;99660.66;8660484;33;20208;-77
2021/10/31 04:19:07;;;;;;;14.10;8.45;;;;;;;9.97;82.54;99648.25;8659939;33;20180;-77
2021/10/31 04:24:10;;;;;;;13.77;8.43;;;;;;;9.89;82.66;99652.44;8659703;33;20180;-77
2021/10/31 04:29:14;;;;;;;15.25;9.23;;;;;;;9.94;82.16;99660.09;8659384;33;20199;-77
2021/10/31 04:34:17;;;;;;;13.45;8.52;;;;;;;9.83;82.47;99666.38;8658684;33;20196;-77
2021/10/31 04:39:20;;;;;;;14.73;9.38;;;;;;;9.87;82.73;99667.88;8658012;33;20198;-77
2021/10/31 04:44:25;;;;;;;14.40;8.60;;;;;;;9.87;82.63;99665.19;8659149;33;20172;-77
2021/10/31 04:49:29;;;;;;;16.25;9.65;;;;;;;9.81;82.37;99660.31;8658602;33;20176;-76
2021/10/31 04:54:32;;;;;;;14.93;9.60;;;;;;;9.75;82.66;99668.06;8659115;33;20191;-76
2021/10/31 04:59:36;;;;;;;16.38;9.88;;;;;;;9.69;82.53;99666.78;8659763;33;20188;-77
2021/10/31 05:04:39;;;;;;;15.38;10.05;;;;;;;9.61;82.51;99654.03;8658355;33;20464;-76
2021/10/31 05:09:42;;;;;;;15.27;10.48;;;;;;;9.57;82.60;99659.81;8659039;33;20544;-76
2021/10/31 05:14:46;;;;;;;18.15;10.40;;;;;;;9.56;82.94;99653.59;8658596;33;20562;-76
2021/10/31 05:19:49;;;;;;;16.90;10.82;;;;;;;9.56;83.14;99661.63;8659211;33;20265;-77
2021/10/31 05:24:52;;;;;;;15.82;10.07;;;;;;;9.53;83.42;99666.44;8658289;33;20141;-76
2021/10/31 05:29:57;;;;;;;18.45;10.23;;;;;;;9.53;83.72;99661.06;8658202;33;20526;-76
2021/10/31 05:35:00;;;;;;;20.13;11.15;;;;;;;9.57;83.84;99655.31;8660778;33;21908;-76
2021/10/31 05:40:05;;;;;;;18.20;10.18;;;;;;;9.61;83.70;99650.53;8664917;33;20217;-76
2021/10/31 05:45:11;;;;;;;17.40;10.13;;;;;;;9.62;83.56;99631.59;8657268;33;20180;-76
2021/10/31 05:50:17;;;;;;;19.63;10.20;;;;;;;9.63;83.31;99652.09;8657522;33;20128;-76
2021/10/31 05:55:21;;;;;;;18.42;11.20;;;;;;;9.62;83.16;99645.00;8657075;33;20257;-76
2021/10/31 06:00:25;;;;;;;16.75;10.70;;;;;;;9.58;83.11;99648.13;8677123;33;20172;-76
2021/10/31 06:05:30;;;;;;;15.23;10.20;;;;;;;9.49;82.86;99647.94;8689041;33;20137;-76
2021/10/31 06:10:33;;;;;;;18.67;10.70;;;;;;;9.36;82.75;99651.84;8668755;33;20188;-77
2021/10/31 06:15:37;;;;;;;16.20;10.10;;;;;;;9.26;83.04;99657.13;8662767;33;20295;-76
2021/10/31 06:20:42;;;;;;;19.08;12.02;;;;;;;9.24;83.25;99645.69;8663690;33;20499;-77
2021/10/31 06:25:45;;;;;;;16.85;10.68;;;;;;;9.24;83.47;99651.06;8662484;33;20172;-77
2021/10/31 06:30:49;;;;;;;17.15;10.40;;;;;;;9.22;83.31;99651.19;8661638;33;20185;-77
2021/10/31 06:35:52;;;;;;;16.98;11.85;;;;;;;9.21;83.60;99654.00;8664000;33;20538;-77
2021/10/31 06:40:55;;;;;;;18.77;12.00;;;;;;;9.20;83.60;99660.34;8664731;33;20526;-77
2021/10/31 06:46:00;;;;;;;20.45;11.95;;;;;;;9.19;83.52;99656.84;8663581;33;20211;-77
2021/10/31 06:51:03;;;;;;;19.63;10.95;;;;;;;9.24;83.71;99657.28;8671551;33;20195;-77
2021/10/31 06:56:06;;;;;;;20.05;11.43;;;;;;;9.33;83.57;99655.63;8664572;33;20177;-77
2021/10/31 07:01:10;;;;;;;19.92;11.07;;;;;;;9.41;83.43;99653.13;8662014;33;20635;-77
2021/10/31 07:06:15;;;;;;;19.83;12.02;;;;;;;9.40;83.12;99650.56;8663173;33;20196;-77
2021/10/31 07:11:18;;;;;;;28.85;12.80;;;;;;;9.41;82.64;99653.13;8662337;33;20351;-77
2021/10/31 07:16:22;;;;;;;22.10;12.38;;;;;;;9.42;82.48;99648.59;8661586;33;20224;-77
2021/10/31 07:21:26;;;;;;;22.63;13.23;;;;;;;9.49;82.17;99653.31;8662511;33;20195;-77
2021/10/31 07:26:29;;;;;;;16.70;8.48;;;;;;;9.65;81.95;99643.88;8661592;33;20286;-77
2021/10/31 07:31:39;;;;;;;21.45;12.27;;;;;;;10.03;81.06;99643.16;8661985;33;20180;-77
2021/10/31 07:36:44;;;;;;;19.48;11.25;;;;;;;10.59;79.25;99636.28;8660643;33;20581;-76
2021/10/31 07:41:47;;;;;;;17.15;11.00;;;;;;;11.25;76.02;99628.22;8660662;33;20522;-76
2021/10/31 07:46:52;;;;;;;21.92;13.98;;;;;;;11.75;73.92;99631.53;8659066;33;20129;-76
2021/10/31 07:51:55;;;;;;;22.67;13.98;;;;;;;11.73;72.54;99613.69;8719789;33;20187;-76
2021/10/31 07:57:00;;;;;;;25.13;15.15;;;;;;;11.58;74.04;99615.22;8692071;33;20668;-77
2021/10/31 08:02:05;;;;;;;28.10;15.52;;;;;;;11.93;72.57;99608.22;8691992;33;20283;-77
2021/10/31 08:07:08;;;;;;;27.67;15.18;;;;;;;12.64;70.84;99603.81;8693691;33;20752;-77
2021/10/31 08:12:11;;;;;;;28.15;15.07;;;;;;;13.46;67.30;99594.41;8717931;33;21567;-77
2021/10/31 08:17:15;;;;;;;24.13;14.82;;;;;;;13.72;66.84;99597.03;8692122;33;20462;-76
2021/10/31 08:22:18;;;;;;;21.00;13.60;;;;;;;12.99;67.79;99600.19;8717225;33;20144;-76
2021/10/31 08:27:21;;;;;;;23.08;13.90;;;;;;;12.67;69.48;99584.66;8718578;33;20180;-77
2021/10/31 08:32:27;;;;;;;23.80;15.13;;;;;;;12.33;70.27;99572.78;8726915;33;20148;-77
2021/10/31 08:37:30;;;;;;;23.33;14.40;;;;;;;12.19;71.22;99564.38;8697920;33;20179;-77
2021/10/31 08:42:35;;;;;;;24.00;16.08;;;;;;;12.04;71.72;99559.53;8717289;33;21546;-77
2021/10/31 08:47:39;;;;;;;28.20;15.65;;;;;;;11.80;72.87;99556.59;8692744;33;20311;-77
2021/10/31 08:52:43;;;;;;;23.30;14.60;;;;;;;11.90;72.86;99568.13;8695791;33;20156;-77
2021/10/31 08:57:46;;;;;;;23.63;15.15;;;;;;;11.92;72.68;99550.84;8693477;33;20389;-76
2021/10/31 09:02:51;;;;;;;25.98;14.88;;;;;;;12.02;72.33;99549.94;8717032;33;20341;-77
2021/10/31 09:07:55;;;;;;;26.27;16.15;;;;;;;12.30;71.42;99554.25;8692303;33;20463;-77
2021/10/31 09:12:59;;;;;;;23.27;15.30;;;;;;;12.55;71.01;99546.34;8716952;33;20265;-77
2021/10/31 09:18:04;;;;;;;25.00;14.48;;;;;;;13.68;68.87;99547.94;8691571;33;20257;-76
2021/10/31 09:23:09;;;;;;;21.75;13.82;;;;;;;14.32;66.64;99542.78;8716019;33;20185;-77
2021/10/31 09:28:12;;;;;;;19.27;11.30;;;;;;;14.44;64.78;99537.91;8715965;33;20179;-76
2021/10/31 09:33:17;;;;;;;12.05;9.00;;;;;;;14.41;64.71;99523.91;8718838;33;20156;-76
2021/10/31 09:38:22;;;;;;;14.38;8.85;;;;;;;14.38;64.56;99520.53;8715954;33;20140;-76
2021/10/31 09:43:28;;;;;;;10.82;7.55;;;;;;;14.53;63.91;99526.06;8714959;33;20166;-77
2021/10/31 09:48:33;;;;;;;9.38;7.03;;;;;;;14.63;63.60;99515.09;8691547;33;20471;-77
2021/10/31 09:53:36;;;;;;;12.30;7.10;;;;;;;15.00;62.78;99503.69;8690653;33;20155;-76
2021/10/31 09:58:42;;;;;;;8.10;5.95;;;;;;;15.49;61.75;99499.91;8716210;33;20183;-75
2021/10/31 10:03:55;;;;;;;6.35;5.13;;;;;;;14.98;60.80;99499.47;8692677;33;20187;-76
2021/10/31 10:09:06;;;;;;;7.80;5.35;;;;;;;14.68;62.56;99496.50;8716872;33;20507;-77
2021/10/31 10:14:13;;;;;;;6.32;4.90;;;;;;;14.91;62.16;99482.25;8715972;33;20151;-76
2021/10/31 10:19:23;;;;;;;5.13;4.07;;;;;;;15.27;60.17;99459.06;8716341;33;20226;-76
2021/10/31 10:24:28;;;;;;;5.47;4.33;;;;;;;15.10;60.94;99460.19;8715923;33;20491;-76
2021/10/31 10:29:36;;;;;;;7.47;5.32;;;;;;;15.07;60.59;99447.03;8714894;33;20179;-76
2021/10/31 10:34:46;;;;;;;4.20;3.70;;;;;;;14.88;60.94;99447.44;8714974;33;20663;-76
2021/10/31 10:39:54;;;;;;;6.18;3.75;;;;;;;14.78;61.68;99435.00;8714669;33;20176;-76
2021/10/31 10:45:01;;;;;;;4.53;3.72;;;;;;;14.73;61.66;99425.72;8715238;33;21103;-76
2021/10/31 10:50:07;;;;;;;4.55;3.60;;;;;;;14.79;61.47;99425.00;8691580;33;20252;-75
2021/10/31 10:55:14;;;;;;;4.55;3.10;;;;;;;14.82;61.44;99409.28;8690648;33;20222;-76
2021/10/31 11:00:20;;;;;;;5.32;3.10;;;;;;;15.29;60.37;99398.56;8691185;33;20195;-76
2021/10/31 11:05:30;;;;;;;4.80;3.95;;;;;;;16.41;58.27;99396.97;8718580;33;20222;-76
2021/10/31 11:10:33;;;;;;;4.90;4.40;;;;;;;17.47;55.55;99375.78;8720931;33;20914;-75
2021/10/31 11:15:36;;;;;;;4.78;3.80;;;;;;;17.70;54.33;99373.69;8719217;33;20215;-76
2021/10/31 11:20:44;;;;;;;5.80;3.65;;;;;;;17.06;56.38;99373.63;8719645;33;20551;-76
2021/10/31 11:25:48;;;;;;;4.35;3.70;;;;;;;16.35;58.37;99381.47;8693400;33;20663;-76
2021/10/31 11:30:52;;;;;;;5.28;4.10;;;;;;;16.00;59.54;99366.72;8719224;33;20195;-75
2021/10/31 11:35:57;;;;;;;7.97;5.43;;;;;;;16.12;59.46;99347.09;8718064;33;20229;-76
2021/10/31 11:41:07;;;;;;;5.95;4.82;;;;;;;16.03;60.68;99336.56;8716915;33;20631;-75
2021/10/31 11:46:10;;;;;;;6.47;4.75;;;;;;;15.86;61.28;99339.44;8717563;33;20148;-75
2021/10/31 11:51:15;;;;;;;5.78;4.25;;;;;;;16.09;60.76;99319.56;8719389;33;20972;-75
2021/10/31 11:56:21;;;;;;;3.70;3.30;;;;;;;16.05;61.57;99329.09;8722695;33;20564;-76
2021/10/31 12:01:43;;;;;;;5.65;4.25;;;;;;;16.40;60.83;99305.88;8737690;33;20175;-76
2021/10/31 12:06:50;;;;;;;3.90;3.50;;;;;;;15.67;62.61;99307.47;8728313;33;20187;-75
2021/10/31 12:12:15;;;;;;;4.93;3.25;;;;;;;15.35;63.84;99295.06;8720606;33;20153;-76
2021/10/31 12:17:21;;;;;;;4.20;3.67;;;;;;;15.54;64.23;99293.72;8682534;33;20184;-76
2021/10/31 12:22:44;;;;;;;6.07;4.25;;;;;;;15.68;63.77;99273.94;8719904;33;21597;-75
2021/10/31 12:27:50;;;;;;;5.22;3.58;;;;;;;15.62;64.24;99272.81;8718568;33;20733;-75
2021/10/31 12:33:02;;;;;;;4.38;3.80;;;;;;;15.50;64.21;99260.78;8718526;33;20187;-75
2021/10/31 12:38:38;;;;;;;5.53;4.05;;;;;;;15.88;64.27;99255.31;8718218;33;20187;-75
2021/10/31 12:44:13;;;;;;;4.85;4.30;;;;;;;16.25;62.51;99232.69;8712846;33;20470;-75
2021/10/31 12:49:24;;;;;;;6.80;4.20;;;;;;;16.50;61.98;99238.63;8705183;33;20640;-75
2021/10/31 12:54:33;;;;;;;5.68;4.47;;;;;;;16.91;60.61;99221.75;8738781;33;20282;-75
2021/10/31 12:59:45;;;;;;;5.57;4.25;;;;;;;16.62;61.57;99224.59;8717083;33;20195;-76
2021/10/31 13:04:55;;;;;;;4.90;4.00;;;;;;;16.46;62.36;99214.84;8692834;33;20156;-75
2021/10/31 13:09:59;;;;;;;5.95;4.68;;;;;;;16.79;61.78;99196.22;8717365;33;20196;-75
2021/10/31 13:15:06;;;;;;;4.65;4.18;;;;;;;17.17;60.59;99195.97;8717331;33;20542;-75
2021/10/31 13:20:18;;;;;;;4.72;4.20;;;;;;;17.14;61.10;99174.63;8717521;33;20296;-75
2021/10/31 13:25:33;;;;;;;5.45;4.55;;;;;;;16.88;61.54;99158.94;8716077;33;20278;-75
2021/10/31 13:30:36;;;;;;;5.55;4.97;;;;;;;16.34;63.56;99165.69;8715920;33;20709;-75
2021/10/31 13:35:43;;;;;;;5.03;4.30;;;;;;;16.13;64.15;99132.09;8717784;33;20209;-75
2021/10/31 13:40:47;;;;;;;5.03;4.13;;;;;;;15.76;65.20;99130.38;8676601;33;20195;-74
2021/10/31 13:45:59;;;;;;;5.20;3.97;;;;;;;16.21;64.19;99135.69;8713368;33;20187;-75
2021/10/31 13:51:05;;;;;;;4.60;4.07;;;;;;;16.04;64.00;99124.25;8716321;33;20219;-75
2021/10/31 13:56:10;;;;;;;5.18;4.68;;;;;;;16.26;64.18;99117.03;8714983;33;20278;-75
2021/10/31 14:01:35;;;;;;;5.07;4.28;;;;;;;16.23;64.36;99109.28;8711068;33;20152;-75
2021/10/31 14:06:41;;;;;;;5.22;4.25;;;;;;;16.13;64.67;99090.63;8699068;33;21913;-76
2021/10/31 14:11:57;;;;;;;4.55;4.07;;;;;;;16.39;64.24;99091.97;8715483;33;20179;-75
2021/10/31 14:17:16;;;;;;;5.45;4.00;;;;;;;16.05;65.27;99083.47;8715293;33;20187;-76
2021/10/31 14:22:21;;;;;;;4.15;3.75;;;;;;;15.89;65.88;99067.44;8690357;33;20218;-76
2021/10/31 14:27:28;;;;;;;4.40;4.00;;;;;;;15.59;67.29;99056.69;8714944;33;21183;-75
2021/10/31 14:32:45;;;;;;;4.43;4.03;;;;;;;15.55;67.13;99044.56;8715191;33;20682;-75
2021/10/31 14:38:09;;;;;;;3.80;3.40;;;;;;;15.35;67.72;99048.88;8719041;33;20324;-75
2021/10/31 14:43:22;;;;;;;3.47;3.15;;;;;;;15.34;68.17;99057.97;8661630;33;20180;-75
2021/10/31 14:48:31;;;;;;;4.10;3.13;;;;;;;15.38;68.12;99038.50;8662996;33;20181;-75
2021/10/31 14:53:34;;;;;;;4.18;3.75;;;;;;;15.34;68.30;99039.91;8661210;33;20245;-75
2021/10/31 14:58:38;;;;;;;11.05;7.25;;;;;;;15.28;69.21;99021.69;8660390;33;21423;-75
2021/10/31 15:03:41;;;;;;;15.38;8.25;;;;;;;15.14;69.65;99007.16;8661602;33;20168;-75
2021/10/31 15:08:44;;;;;;;20.90;10.13;;;;;;;15.15;69.83;99008.00;8668002;33;20235;-75
2021/10/31 15:13:50;;;;;;;63.20;32.97;;;;;;;14.99;70.82;98988.22;8662241;33;20191;-75
2021/10/31 15:18:53;;;;;;;8.77;6.18;;;;;;;14.75;71.36;98980.38;8665477;33;20248;-76
2021/10/31 15:23:56;;;;;;;6.18;4.60;;;;;;;14.64;72.32;98978.97;8654489;33;21150;-75
2021/10/31 15:29:01;;;;;;;4.78;4.28;;;;;;;14.59;72.04;98968.75;8660446;33;20239;-76
2021/10/31 15:34:04;;;;;;;4.40;4.00;;;;;;;14.50;72.68;98969.00;8660717;33;20211;-75
2021/10/31 15:39:10;;;;;;;4.80;4.30;;;;;;;14.46;72.80;98944.22;8660068;33;21214;-76
2021/10/31 15:44:15;;;;;;;5.13;4.32;;;;;;;14.26;73.47;98930.38;8659370;33;20682;-75
2021/10/31 15:49:19;;;;;;;5.85;4.45;;;;;;;14.27;73.60;98920.41;8660896;33;20786;-77
2021/10/31 15:54:22;;;;;;;5.15;4.40;;;;;;;14.31;73.17;98922.53;8659903;33;20141;-77
2021/10/31 15:59:26;;;;;;;5.10;4.15;;;;;;;14.25;73.66;98920.59;8660221;33;20566;-77
2021/10/31 16:04:29;;;;;;;6.25;4.45;;;;;;;14.24;73.70;98902.72;8672853;33;20704;-76
2021/10/31 16:09:33;;;;;;;4.45;4.05;;;;;;;14.24;73.98;98891.09;8721878;33;20152;-76
2021/10/31 16:14:37;;;;;;;4.82;4.20;;;;;;;14.18;74.05;98875.59;8717366;33;21521;-76
2021/10/31 16:19:40;;;;;;;7.45;4.57;;;;;;;14.19;74.12;98883.53;8718659;33;20188;-75
2021/10/31 16:24:43;;;;;;;20.73;9.88;;;;;;;14.36;73.07;98882.31;8768370;32;21182;-77
2021/10/31 16:29:48;;;;;;;8.90;6.30;;;;;;;14.54;72.24;98882.00;8709000;33;20511;-78
2021/10/31 16:35:09;;;;;;;6.40;4.65;;;;;;;14.42;72.87;98861.84;8712795;33;20188;-76
2021/10/31 16:40:14;;;;;;;5.05;4.35;;;;;;;14.37;73.32;98845.34;8713060;33;20259;-77
2021/10/31 16:45:23;;;;;;;6.32;3.53;;;;;;;14.31;73.23;98851.50;8737257;33;20180;-77
2021/10/31 16:50:27;;;;;;;2.88;2.47;;;;;;;14.60;71.79;98831.78;8695460;33;20328;-78
2021/10/31 16:55:30;;;;;;;2.55;2.33;;;;;;;14.80;70.76;98823.91;8719066;33;20195;-77
2021/10/31 17:00:36;;;;;;;2.90;2.20;;;;;;;14.79;70.69;98820.38;8695216;33;20227;-77
2021/10/31 17:05:39;;;;;;;3.05;2.20;;;;;;;14.85;70.54;98809.84;8720630;33;20136;-76
2021/10/31 17:10:56;;;;;;;3.33;1.63;;;;;;;14.76;70.54;98806.41;8696768;33;20132;-77
2021/10/31 17:16:01;;;;;;;2.53;1.77;;;;;;;14.91;70.00;98804.50;8692513;33;20274;-76
2021/10/31 17:21:04;;;;;;;4.68;2.97;;;;;;;14.96;69.46;98795.81;8719676;33;20639;-77
2021/10/31 17:26:09;;;;;;;2.75;2.50;;;;;;;14.89;69.89;98784.09;8720242;33;20183;-77
2021/10/31 17:31:13;;;;;;;3.47;2.42;;;;;;;14.67;70.31;98781.34;8695110;33;20187;-77
2021/10/31 17:36:17;;;;;;;2.70;2.50;;;;;;;14.96;69.42;98768.78;8691573;33;20185;-76
2021/10/31 17:41:20;;;;;;;5.57;3.08;;;;;;;14.80;69.62;98773.38;8711377;33;20172;-77
2021/10/31 17:46:24;;;;;;;2.50;2.30;;;;;;;14.96;69.06;98755.25;8730403;33;20638;-78
2021/10/31 17:51:27;;;;;;;2.75;2.53;;;;;;;15.05;68.64;98768.44;8707844;33;20135;-75
2021/10/31 17:56:30;;;;;;;2.78;2.30;;;;;;;14.99;68.69;98763.00;8756783;33;20494;-76
2021/10/31 18:01:36;;;;;;;2.03;1.77;;;;;;;15.24;67.94;98739.91;8708180;33;20231;-77
2021/10/31 18:06:39;;;;;;;1.98;1.80;;;;;;;15.21;67.57;98734.91;8720251;33;20147;-77
2021/10/31 18:11:42;;;;;;;3.22;1.77;;;;;;;15.17;67.25;98730.09;8696924;33;20151;-76
2021/10/31 18:16:50;;;;;;;4.13;2.50;;;;;;;15.19;67.12;98719.91;8721563;33;20150;-76
2021/10/31 18:21:54;;;;;;;2.47;1.75;;;;;;;15.24;66.69;98712.88;8721324;33;20194;-77
2021/10/31 18:26:58;;;;;;;2.58;2.15;;;;;;;15.29;65.86;98703.34;8722830;33;20638;-77
2021/10/31 18:32:02;;;;;;;2.65;2.20;;;;;;;15.20;65.19;98710.78;8699057;33;20588;-77
2021/10/31 18:37:23;;;;;;;2.10;1.90;;;;;;;15.39;64.18;98695.78;8723767;33;20522;-78
2021/10/31 18:42:29;;;;;;;2.20;1.80;;;;;;;15.41;64.18;98690.97;8700866;33;20199;-77
2021/10/31 18:47:36;;;;;;;6.40;2.08;;;;;;;15.30;64.42;98686.91;8701360;33;20152;-77
2021/10/31 18:52:40;;;;;;;2.13;1.75;;;;;;;15.26;64.73;98683.78;8701222;33;20796;-77
2021/10/31 18:57:43;;;;;;;3.83;1.73;;;;;;;15.24;64.77;98676.88;8747157;33;20313;-76
2021/10/31 19:02:48;;;;;;;1.98;1.73;;;;;;;15.10;64.75;98678.66;8725765;33;20527;-76
2021/10/31 19:07:52;;;;;;;2.00;1.80;;;;;;;15.17;64.17;98649.81;8726414;33;20211;-78
2021/10/31 19:12:55;;;;;;;1.98;1.77;;;;;;;15.00;64.05;98635.75;8700157;33;20274;-76
2021/10/31 19:17:59;;;;;;;2.15;1.95;;;;;;;15.19;63.91;98615.28;8724814;33;20684;-77
2021/10/31 19:23:02;;;;;;;3.50;1.88;;;;;;;15.11;63.92;98596.50;8695817;33;20143;-77
2021/10/31 19:28:08;;;;;;;2.00;1.80;;;;;;;15.30;63.29;98604.94;8722435;33;20241;-76
2021/10/31 19:33:12;;;;;;;1.75;1.65;;;;;;;15.17;63.39;98600.31;8744377;33;20266;-77
2021/10/31 19:38:16;;;;;;;3.72;2.10;;;;;;;15.56;62.19;98582.66;8720882;33;20256;-77
2021/10/31 19:43:20;;;;;;;2.00;1.77;;;;;;;15.66;61.74;98581.25;8721325;33;20412;-77
2021/10/31 19:48:24;;;;;;;2.00;1.85;;;;;;;15.65;61.50;98563.34;8721129;33;20180;-77
2021/10/31 19:53:28;;;;;;;2.72;2.03;;;;;;;15.60;60.97;98538.75;8695518;33;20537;-78
2021/10/31 19:58:31;;;;;;;2.30;2.00;;;;;;;15.69;60.92;98512.38;8724320;33;20167;-78
2021/10/31 20:03:36;;;;;;;2.40;2.20;;;;;;;15.52;61.87;98513.72;8697017;33;20187;-77
2021/10/31 20:08:43;;;;;;;2.35;2.10;;;;;;;15.35;62.05;98514.06;8697947;33;20527;-78
2021/10/31 20:13:49;;;;;;;2.25;1.92;;;;;;;15.34;61.42;98498.03;8698700;33;20681;-77
2021/10/31 20:18:53;;;;;;;2.30;1.70;;;;;;;15.39;60.55;98496.44;8697004;33;20604;-78
2021/10/31 20:23:59;;;;;;;3.63;2.45;;;;;;;15.50;59.35;98483.38;8706694;33;20866;-77
2021/10/31 20:29:06;;;;;;;2.90;2.05;;;;;;;15.35;59.53;98481.63;8739821;33;20603;-77
2021/10/31 20:34:11;;;;;;;3.65;2.47;;;;;;;15.49;59.26;98490.63;8694402;33;20210;-77
2021/10/31 20:39:14;;;;;;;2.88;2.03;;;;;;;15.41;59.67;98490.78;8719186;33;20191;-77
2021/10/31 20:44:17;;;;;;;4.03;2.17;;;;;;;15.45;59.94;98506.44;8719345;33;20187;-77
2021/10/31 20:49:21;;;;;;;3.60;2.45;;;;;;;15.84;59.09;98490.53;8719195;33;20210;-77
2021/10/31 20:54:27;;;;;;;2.47;1.75;;;;;;;15.54;59.49;98493.56;8718608;33;20175;-77
2021/10/31 20:59:32;;;;;;;2.58;2.38;;;;;;;15.57;59.79;98495.03;8694446;33;20270;-77
2021/10/31 21:04:36;;;;;;;2.40;2.20;;;;;;;15.44;60.20;98496.66;8700504;33;20262;-77
2021/10/31 21:09:39;;;;;;;3.42;2.35;;;;;;;15.42;60.24;98497.91;8736659;33;21039;-77
2021/10/31 21:14:42;;;;;;;4.63;3.13;;;;;;;15.57;60.46;98506.69;8730791;33;20234;-76
2021/10/31 21:19:47;;;;;;;2.90;2.08;;;;;;;15.33;62.16;98517.97;8725208;33;20205;-78
2021/10/31 21:24:51;;;;;;;2.42;2.22;;;;;;;14.91;67.11;98520.66;8699920;33;20140;-77
2021/10/31 21:29:54;;;;;;;4.72;2.47;;;;;;;14.03;72.90;98565.97;8724937;33;20267;-77
2021/10/31 21:34:59;;;;;;;2.90;2.20;;;;;;;13.28;78.99;98588.66;8725597;33;20194;-76
2021/10/31 21:40:05;;;;;;;3.60;2.55;;;;;;;12.63;83.44;98600.06;8692959;33;20363;-77
2021/10/31 21:45:09;;;;;;;3.92;1.90;;;;;;;12.28;86.42;98616.63;8697423;33;20230;-77
2021/10/31 21:50:13;;;;;;;4.10;2.35;;;;;;;12.45;87.01;98627.28;8700414;33;20233;-78
2021/10/31 21:55:16;;;;;;;2.88;2.47;;;;;;;12.53;87.71;98633.47;8725332;33;20143;-78
2021/10/31 22:00:20;;;;;;;3.60;2.63;;;;;;;12.55;87.65;98639.50;8671581;33;20573;-76
2021/10/31 22:05:28;;;;;;;2.78;2.33;;;;;;;12.58;88.19;98655.28;8719084;33;20616;-77
2021/10/31 22:10:31;;;;;;;2.92;2.20;;;;;;;12.68;87.76;98665.84;8717888;33;20226;-78
2021/10/31 22:15:35;;;;;;;1.50;1.40;;;;;;;12.47;87.18;98685.31;8718671;33;20211;-78
2021/10/31 22:20:40;;;;;;;1.48;1.38;;;;;;;12.65;86.73;98681.53;8696235;33;20175;-77
2021/10/31 22:25:43;;;;;;;1.70;1.45;;;;;;;12.59;87.47;98708.16;8727088;33;20695;-77
2021/10/31 22:30:46;;;;;;;1.40;1.00;;;;;;;12.12;88.75;98730.59;8717589;33;20268;-77
2021/10/31 22:35:51;;;;;;;0.95;0.93;;;;;;;11.77;90.49;98734.56;8716481;33;20759;-77
2021/10/31 22:40:54;;;;;;;1.10;1.00;;;;;;;11.39;92.85;98745.03;8717097;33;20530;-78
2021/10/31 22:45:58;;;;;;;1.05;0.95;;;;;;;10.81;91.45;98776.41;8701767;33;20219;-78
2021/10/31 22:51:03;;;;;;;6.10;2.22;;;;;;;10.42;86.55;98799.41;8716137;33;20180;-77
2021/10/31 22:56:06;;;;;;;13.93;2.85;;;;;;;10.21;85.90;98791.81;8714928;33;21770;-77
2021/10/31 23:01:13;;;;;;;7.65;2.72;;;;;;;10.19;86.70;98788.44;8719315;33;20156;-76
2021/10/31 23:06:20;;;;;;;10.35;3.25;;;;;;;10.14;87.47;98783.53;8722474;33;21721;-77
2021/10/31 23:11:25;;;;;;;9.07;2.70;;;;;;;10.42;88.11;98773.41;8673581;33;20592;-77
2021/10/31 23:16:29;;;;;;;7.95;3.05;;;;;;;10.42;87.73;98794.06;8661014;33;20148;-77
2021/10/31 23:21:33;;;;;;;8.88;2.30;;;;;;;10.33;87.82;98823.53;8663071;33;20188;-77
2021/10/31 23:26:37;;;;;;;3.28;1.83;;;;;;;10.42;88.68;98858.47;8666719;33;20145;-77
2021/10/31 23:31:40;;;;;;;7.40;2.42;;;;;;;10.44;88.60;98843.88;8660763;33;20177;-76
2021/10/31 23:36:44;;;;;;;6.60;2.75;;;;;;;10.43;87.79;98823.44;8659784;33;20184;-77
2021/10/31 23:41:47;;;;;;;6.85;3.50;;;;;;;10.27;87.45;98812.63;8660417;33;20184;-77
2021/10/31 23:46:51;;;;;;;9.48;3.63;;;;;;;10.26;87.44;98824.38;8667402;33;22016;-76
2021/10/31 23:51:55;;;;;;;12.95;3.65;;;;;;;10.32;87.70;98823.72;8678134;33;20750;-77